TimeEST,TemperatureF,Dew PointF,Humidity,Sea Level PressureIn,VisibilityMPH,Wind Direction,Wind SpeedMPH,Gust SpeedMPH,PrecipitationIn,Events,Conditions,WindDirDegrees,DateUTC
12:01 AM,63.0,62.1,97,30.07,1.5,Calm,Calm,-,N/A,,Scattered Clouds,0,2014-02-22 05:01:00
12:32 AM,64.9,63.0,93,30.06,2.0,WSW,3.5,-,0.00,Rain,Light Rain,240,2014-02-22 05:32:00
12:43 AM,64.0,63.0,96,30.06,3.0,SW,3.5,-,0.00,,Overcast,220,2014-02-22 05:43:00
12:53 AM,64.9,63.0,93,30.06,6.0,South,3.5,-,0.00,,Overcast,180,2014-02-22 05:53:00
1:53 AM,64.9,64.0,97,30.05,7.0,SW,3.5,-,N/A,,Mostly Cloudy,220,2014-02-22 06:53:00
2:20 AM,66.0,64.0,93,30.05,8.0,SSW,3.5,-,N/A,,Mostly Cloudy,210,2014-02-22 07:20:00
2:43 AM,66.0,64.0,93,30.04,9.0,WSW,4.6,-,N/A,,Overcast,250,2014-02-22 07:43:00
2:53 AM,66.0,64.0,93,30.04,9.0,West,5.8,-,N/A,,Mostly Cloudy,260,2014-02-22 07:53:00
3:53 AM,66.0,64.0,93,30.04,6.0,SSW,3.5,-,N/A,,Scattered Clouds,210,2014-02-22 08:53:00
4:04 AM,66.0,64.9,96,30.04,5.0,Calm,Calm,-,N/A,,Overcast,0,2014-02-22 09:04:00
4:53 AM,66.9,64.9,93,30.04,5.0,Calm,Calm,-,N/A,,Mostly Cloudy,0,2014-02-22 09:53:00
5:03 AM,66.0,64.9,96,30.04,2.5,Calm,Calm,-,N/A,,Scattered Clouds,0,2014-02-22 10:03:00
5:17 AM,64.9,64.0,97,30.04,1.5,Calm,Calm,-,N/A,,Scattered Clouds,0,2014-02-22 10:17:00
5:53 AM,64.9,64.0,97,30.05,1.2,WNW,4.6,-,N/A,,Mostly Cloudy,290,2014-02-22 10:53:00
6:05 AM,64.9,64.0,97,30.05,2.0,NW,3.5,-,N/A,,Overcast,310,2014-02-22 11:05:00
6:22 AM,64.9,64.0,97,30.05,1.5,Calm,Calm,-,N/A,,Overcast,0,2014-02-22 11:22:00
6:38 AM,64.9,64.0,97,30.06,0.1,Calm,Calm,-,N/A,Fog,Fog,0,2014-02-22 11:38:00
6:53 AM,64.9,63.0,93,30.07,0.1,West,3.5,-,N/A,Fog,Fog,270,2014-02-22 11:53:00
7:21 AM,64.9,64.0,97,30.08,0.5,Calm,Calm,-,N/A,,Overcast,0,2014-02-22 12:21:00
7:44 AM,64.9,64.0,97,30.09,4.0,Calm,Calm,-,N/A,,Overcast,0,2014-02-22 12:44:00
7:53 AM,64.9,64.0,97,30.09,4.0,Calm,Calm,-,N/A,,Overcast,0,2014-02-22 12:53:00
8:08 AM,66.0,64.0,93,30.09,4.0,Calm,Calm,-,N/A,,Mostly Cloudy,0,2014-02-22 13:08:00
8:53 AM,66.0,64.9,96,30.11,4.0,Calm,Calm,-,N/A,,Overcast,0,2014-02-22 13:53:00
9:53 AM,69.1,66.0,90,30.12,5.0,North,4.6,-,N/A,,Overcast,350,2014-02-22 14:53:00
10:21 AM,68.0,64.9,90,30.13,2.0,NNE,10.4,-,0.00,Rain,Light Rain,30,2014-02-22 15:21:00
10:36 AM,66.0,64.0,93,30.13,2.0,NNE,10.4,-,0.00,,Overcast,30,2014-02-22 15:36:00
10:47 AM,66.2,62.6,88,30.13,3.0,NNE,9.2,-,0.00,,Overcast,30,2014-02-22 15:47:00
10:53 AM,66.0,63.0,90,30.14,3.0,NNE,9.2,-,0.00,,Overcast,20,2014-02-22 15:53:00
11:03 AM,66.0,63.0,90,30.13,4.0,NNE,8.1,-,N/A,,Overcast,20,2014-02-22 16:03:00
11:53 AM,66.9,62.1,84,30.12,7.0,North,10.4,-,N/A,,Overcast,360,2014-02-22 16:53:00
12:38 PM,70.0,63.0,78,30.10,8.0,NNE,11.5,-,N/A,,Overcast,20,2014-02-22 17:38:00
12:53 PM,71.1,63.0,75,30.09,9.0,NNE,10.4,-,N/A,,Overcast,20,2014-02-22 17:53:00
1:53 PM,70.0,62.1,76,30.08,9.0,NE,9.2,-,N/A,,Overcast,40,2014-02-22 18:53:00
2:53 PM,69.1,60.1,73,30.06,10.0,NNE,9.2,-,N/A,,Overcast,20,2014-02-22 19:53:00
3:41 PM,69.1,59.0,70,30.07,10.0,NNE,9.2,-,N/A,,Overcast,30,2014-02-22 20:41:00
3:53 PM,68.0,57.9,70,30.07,10.0,NNE,10.4,-,N/A,,Overcast,20,2014-02-22 20:53:00
4:53 PM,66.9,57.0,70,30.08,10.0,North,6.9,-,N/A,,Overcast,350,2014-02-22 21:53:00
5:53 PM,66.9,57.0,70,30.09,10.0,NNE,6.9,-,N/A,,Overcast,20,2014-02-22 22:53:00
6:48 PM,66.2,55.4,68,30.08,10.0,North,8.1,-,N/A,,Mostly Cloudy,360,2014-02-22 23:48:00
6:53 PM,64.9,55.9,73,30.09,10.0,North,8.1,-,N/A,,Mostly Cloudy,360,2014-02-22 23:53:00
7:47 PM,64.4,55.4,73,30.10,10.0,North,5.8,-,N/A,,Scattered Clouds,360,2014-02-23 00:47:00
7:53 PM,63.0,55.9,78,30.10,10.0,North,6.9,-,N/A,,Scattered Clouds,350,2014-02-23 00:53:00
8:53 PM,63.0,55.9,78,30.11,10.0,Calm,Calm,-,N/A,,Clear,0,2014-02-23 01:53:00
9:53 PM,60.1,55.9,86,30.11,10.0,Calm,Calm,-,N/A,,Clear,0,2014-02-23 02:53:00
10:53 PM,57.9,55.9,93,30.10,6.0,Calm,Calm,-,N/A,,Partly Cloudy,0,2014-02-23 03:53:00
11:53 PM,57.9,55.0,90,30.09,10.0,Calm,Calm,-,N/A,,Partly Cloudy,0,2014-02-23 04:53:00